Time;durP1;ratioP1;P1;durP2;ratioP2;P2;SDS_P1;SDS_P2;PMS_P1;PMS_P2;Temp;Humidity;BMP_temperature;BMP_pressure;BME280_temperature;BME280_humidity;BME280_pressure;Samples;Min_cycle;Max_cycle;Signal;HPM_P1;HPM_P2
2022/04/03 00:02:20;;;;;;;1.30;1.00;;;;;;;9.07;76.86;93426.28;5053370;28;20667;-62
2022/04/03 00:04:46;;;;;;;1.60;0.80;;;;;;;9.10;76.63;93426.75;5053938;28;20190;-62
2022/04/03 00:07:11;;;;;;;1.00;0.70;;;;;;;8.89;74.87;93446.59;5058788;23;20249;-62
2022/04/03 00:09:37;;;;;;;1.77;0.90;;;;;;;8.82;75.70;93432.13;5052547;28;20204;-62
2022/04/03 00:12:03;;;;;;;1.03;0.87;;;;;;;8.52;78.83;93370.06;5053178;28;20220;-62
2022/04/03 00:14:29;;;;;;;3.17;1.30;;;;;;;8.10;81.88;93343.81;5053029;28;20269;-63
2022/04/03 00:16:55;;;;;;;2.90;1.20;;;;;;;8.04;83.88;93324.94;5053039;28;20213;-60
2022/04/03 00:19:20;;;;;;;2.17;1.27;;;;;;;8.21;84.06;93339.28;5053044;28;20186;-62
2022/04/03 00:21:46;;;;;;;2.57;1.17;;;;;;;8.26;83.72;93349.78;5053527;28;20577;-62
2022/04/03 00:24:11;;;;;;;1.77;1.13;;;;;;;8.34;84.27;93346.53;5053603;28;20185;-63
2022/04/03 00:26:37;;;;;;;1.10;1.00;;;;;;;8.54;85.15;93349.66;5052722;28;20209;-62
2022/04/03 00:29:04;;;;;;;1.13;1.00;;;;;;;8.51;85.82;93342.34;5053053;28;20189;-61
2022/04/03 00:31:29;;;;;;;0.80;0.80;;;;;;;8.53;83.27;93365.78;5051513;28;20216;-60
2022/04/03 00:33:55;;;;;;;1.37;0.80;;;;;;;8.58;83.58;93366.94;5052901;28;20177;-61
2022/04/03 00:36:20;;;;;;;1.90;0.57;;;;;;;8.84;80.94;93387.19;5052888;28;20213;-62
2022/04/03 00:38:46;;;;;;;1.77;0.70;;;;;;;8.78;80.76;93390.31;5039824;23;20315;-62
2022/04/03 00:41:13;;;;;;;1.07;0.80;;;;;;;8.69;78.65;93404.66;5039048;23;20241;-60
2022/04/03 00:43:38;;;;;;;2.00;0.73;;;;;;;8.84;76.85;93422.66;5032831;28;20544;-62
2022/04/03 00:46:05;;;;;;;1.27;0.60;;;;;;;8.87;80.34;93385.13;5032763;28;20205;-63
2022/04/03 00:48:31;;;;;;;0.70;0.70;;;;;;;9.01;78.75;93409.09;5032421;28;20193;-63
2022/04/03 00:50:57;;;;;;;0.90;0.77;;;;;;;8.93;79.91;93391.31;5032486;28;20202;-63
2022/04/03 00:53:23;;;;;;;2.13;1.13;;;;;;;9.18;77.69;93413.31;5032547;28;20209;-62
2022/04/03 00:55:50;;;;;;;2.27;0.70;;;;;;;9.09;79.18;93393.97;5032055;28;20206;-60
2022/04/03 00:58:16;;;;;;;1.33;1.00;;;;;;;9.28;77.94;93411.47;5032232;28;20174;-61
2022/04/03 01:00:41;;;;;;;3.80;1.33;;;;;;;8.95;80.99;93361.56;5032809;28;20210;-60
2022/04/03 01:03:07;;;;;;;3.30;1.20;;;;;;;9.14;79.91;93377.34;5032114;28;20181;-61
2022/04/03 01:05:33;;;;;;;4.30;1.43;;;;;;;9.12;79.95;93380.97;5031112;28;20211;-62
2022/04/03 01:07:59;;;;;;;4.47;1.40;;;;;;;8.99;81.22;93357.78;5032408;28;20301;-60
2022/04/03 01:10:25;;;;;;;2.50;1.30;;;;;;;8.72;83.36;93323.31;5032661;28;20640;-63
2022/04/03 01:12:50;;;;;;;2.57;1.17;;;;;;;8.54;85.54;93319.25;5032099;28;20217;-62
2022/04/03 01:15:18;;;;;;;2.07;1.53;;;;;;;8.45;84.49;93329.34;5039517;23;20233;-62
2022/04/03 01:17:44;;;;;;;1.70;1.30;;;;;;;8.72;84.92;93347.84;5039359;22;20718;-60
2022/04/03 01:20:10;;;;;;;3.87;1.70;;;;;;;8.59;85.64;93314.53;5057847;23;20225;-62
2022/04/03 01:22:37;;;;;;;3.70;1.83;;;;;;;8.45;83.73;93374.94;5041459;23;20711;-64
2022/04/03 01:25:04;;;;;;;5.13;2.13;;;;;;;8.34;79.54;93413.13;5031719;28;20178;-62
2022/04/03 01:27:29;;;;;;;4.37;1.20;;;;;;;8.27;78.36;93431.59;5031571;28;20193;-63
2022/04/03 01:29:57;;;;;;;4.40;1.40;;;;;;;8.08;78.59;93416.56;5031834;28;20183;-63
2022/04/03 01:32:23;;;;;;;1.90;1.23;;;;;;;8.18;79.31;93407.91;5031674;28;20197;-62
2022/04/03 01:34:48;;;;;;;3.60;1.10;;;;;;;7.86;76.71;93442.28;5030462;28;20182;-62
2022/04/03 01:37:13;;;;;;;4.60;1.20;;;;;;;8.00;79.23;93413.94;5031354;28;20305;-60
2022/04/03 01:39:39;;;;;;;1.93;1.20;;;;;;;7.95;77.20;93449.78;5021870;23;20257;-63
2022/04/03 01:42:04;;;;;;;2.30;1.07;;;;;;;7.97;76.47;93463.09;5011925;28;20203;-62
2022/04/03 01:44:30;;;;;;;1.93;0.90;;;;;;;8.10;76.96;93455.94;5012586;28;20656;-63
2022/04/03 01:46:56;;;;;;;2.27;1.20;;;;;;;7.76;78.18;93429.69;5011734;28;20245;-60
2022/04/03 01:49:22;;;;;;;2.13;1.20;;;;;;;7.96;76.98;93443.00;5012272;28;20201;-62
2022/04/03 01:51:47;;;;;;;4.30;1.10;;;;;;;8.26;76.59;93462.94;5011717;28;20684;-62
2022/04/03 01:54:13;;;;;;;5.63;1.40;;;;;;;8.10;74.32;93488.81;5010574;28;20602;-62
2022/04/03 01:56:39;;;;;;;4.37;1.03;;;;;;;7.62;74.55;93481.53;5011704;28;20225;-62
2022/04/03 01:59:05;;;;;;;2.23;1.00;;;;;;;7.79;75.11;93461.47;5012005;28;20301;-62
2022/04/03 02:01:32;;;;;;;2.97;0.80;;;;;;;7.81;75.35;93447.75;5011649;28;20194;-63
2022/04/03 02:03:58;;;;;;;2.77;0.80;;;;;;;7.96;74.41;93469.09;5012043;28;20214;-62
2022/04/03 02:06:24;;;;;;;4.00;0.90;;;;;;;8.16;71.91;93512.78;5010334;28;20756;-61
2022/04/03 02:08:49;;;;;;;1.30;1.03;;;;;;;8.12;72.44;93489.47;5011656;28;20183;-62
2022/04/03 02:11:15;;;;;;;2.67;0.67;;;;;;;8.25;72.18;93486.63;5010260;28;20198;-62
2022/04/03 02:13:41;;;;;;;1.20;0.80;;;;;;;8.12;72.26;93486.19;5011776;28;20183;-63
2022/04/03 02:16:06;;;;;;;1.17;0.90;;;;;;;8.03;73.84;93459.19;5010239;28;20272;-60
2022/04/03 02:18:32;;;;;;;1.57;1.30;;;;;;;8.07;73.56;93450.38;5011816;28;20194;-62
2022/04/03 02:20:58;;;;;;;1.50;0.83;;;;;;;8.03;73.90;93441.47;5010377;28;20245;-61
2022/04/03 02:23:23;;;;;;;1.40;0.87;;;;;;;8.20;72.91;93460.94;5010466;28;20570;-62
2022/04/03 02:25:50;;;;;;;3.57;0.90;;;;;;;8.25;74.63;93434.28;5011546;28;20202;-62
2022/04/03 02:28:16;;;;;;;1.77;0.70;;;;;;;8.04;76.74;93395.00;5010560;28;20623;-63
2022/04/03 02:30:42;;;;;;;0.93;0.80;;;;;;;8.14;75.01;93434.44;5011447;28;20228;-61
2022/04/03 02:33:07;;;;;;;1.50;0.90;;;;;;;8.32;74.81;93427.66;5012609;28;20221;-61
2022/04/03 02:35:33;;;;;;;2.33;0.83;;;;;;;8.08;76.33;93421.59;5013758;28;20768;-62
2022/04/03 02:37:58;;;;;;;2.03;1.20;;;;;;;8.04;75.39;93423.63;5013712;28;20225;-61
2022/04/03 02:40:24;;;;;;;2.30;1.00;;;;;;;8.00;76.44;93416.47;5013810;28;20215;-62
2022/04/03 02:42:52;;;;;;;2.30;1.27;;;;;;;7.99;76.57;93428.31;5013881;28;20276;-60
2022/04/03 02:45:18;;;;;;;1.90;0.83;;;;;;;8.02;75.96;93422.19;5015034;28;20195;-61
2022/04/03 02:47:54;;;;;;;1.00;0.70;;;;;;;8.18;76.12;93437.50;5014930;28;20178;-61
2022/04/03 02:50:25;;;;;;;2.30;1.10;;;;;;;8.01;76.58;93410.47;5014738;28;20574;-60
2022/04/03 02:52:52;;;;;;;1.93;1.30;;;;;;;7.96;76.93;93421.00;5056815;23;20229;-61
2022/04/03 02:55:22;;;;;;;1.97;1.03;;;;;;;8.08;75.98;93437.56;5054741;28;20197;-62
2022/04/03 02:57:48;;;;;;;1.47;0.97;;;;;;;8.09;76.01;93441.69;5054692;28;20278;-63
2022/04/03 03:00:14;;;;;;;2.77;0.90;;;;;;;8.26;75.22;93445.22;5054584;28;20205;-63
2022/04/03 03:02:48;;;;;;;1.20;0.90;;;;;;;8.17;76.79;93424.06;5055079;28;20247;-63
2022/04/03 03:05:14;;;;;;;1.73;0.90;;;;;;;8.10;76.20;93440.75;5054210;28;20174;-62
2022/04/03 03:07:41;;;;;;;0.90;0.60;;;;;;;8.21;75.54;93443.06;5054255;28;20197;-63
2022/04/03 03:10:15;;;;;;;6.33;0.80;;;;;;;8.36;76.79;93428.19;5054159;28;20173;-63
2022/04/03 03:12:40;;;;;;;2.27;0.90;;;;;;;7.99;77.14;93419.94;5053420;28;20664;-63
2022/04/03 03:15:06;;;;;;;1.57;0.90;;;;;;;8.30;76.40;93437.16;5053983;28;20182;-65
2022/04/03 03:17:33;;;;;;;2.80;0.97;;;;;;;8.31;74.84;93450.59;5069445;28;20566;-62
2022/04/03 03:19:59;;;;;;;2.00;0.90;;;;;;;8.18;76.48;93435.75;5077300;23;20225;-60
2022/04/03 03:22:25;;;;;;;4.07;0.73;;;;;;;8.44;75.81;93461.94;5072798;28;20183;-62
2022/04/03 03:24:51;;;;;;;2.40;1.10;;;;;;;8.18;74.87;93463.59;5074411;28;20231;-63
2022/04/03 03:27:16;;;;;;;3.97;1.13;;;;;;;7.98;76.99;93425.94;5073774;28;20195;-63
2022/04/03 03:29:42;;;;;;;2.50;0.80;;;;;;;7.80;78.25;93407.44;5074432;28;20185;-59
2022/04/03 03:32:08;;;;;;;1.50;1.10;;;;;;;7.95;76.37;93434.63;5073765;28;20212;-60
2022/04/03 03:34:34;;;;;;;1.73;1.00;;;;;;;8.01;77.69;93421.38;5074315;28;20181;-63
2022/04/03 03:37:01;;;;;;;3.50;1.30;;;;;;;7.89;78.55;93414.16;5062132;23;20260;-64
2022/04/03 03:39:27;;;;;;;2.10;1.13;;;;;;;8.04;78.86;93427.91;5053635;28;20189;-62
2022/04/03 03:41:53;;;;;;;1.10;1.00;;;;;;;7.86;79.97;93404.34;5053644;28;20201;-63
2022/04/03 03:44:19;;;;;;;1.57;0.93;;;;;;;8.16;78.63;93426.75;5053481;28;20185;-60
2022/04/03 03:46:44;;;;;;;2.87;1.20;;;;;;;8.14;79.18;93426.88;5053925;28;20225;-62
2022/04/03 03:49:10;;;;;;;3.40;1.27;;;;;;;7.82;78.47;93424.03;5053345;28;20268;-60
2022/04/03 03:51:36;;;;;;;3.50;1.20;;;;;;;7.42;83.54;93368.81;5053997;28;20295;-62
2022/04/03 03:54:03;;;;;;;2.83;1.27;;;;;;;7.54;83.77;93379.50;5053443;28;20261;-65
2022/04/03 03:56:28;;;;;;;2.87;1.03;;;;;;;7.31;85.53;93380.88;5053916;28;20220;-62
2022/04/03 03:58:54;;;;;;;2.53;0.80;;;;;;;7.62;83.20;93404.88;5052166;28;20360;-61
2022/04/03 04:01:21;;;;;;;4.07;1.17;;;;;;;7.74;83.25;93402.97;5053087;28;20202;-62
2022/04/03 04:03:46;;;;;;;5.03;1.10;;;;;;;7.73;82.69;93409.75;5053283;28;20213;-62
2022/04/03 04:06:12;;;;;;;4.20;1.30;;;;;;;7.69;84.38;93408.44;5053552;28;20240;-60
2022/04/03 04:08:38;;;;;;;3.47;1.43;;;;;;;7.74;83.79;93416.38;5053367;28;20189;-61
2022/04/03 04:11:03;;;;;;;5.90;2.10;;;;;;;7.80;81.11;93453.75;5058777;23;20225;-64
2022/04/03 04:13:29;;;;;;;2.67;1.90;;;;;;;7.82;82.21;93441.75;5052000;28;20189;-62
2022/04/03 04:15:54;;;;;;;4.77;2.20;;;;;;;7.74;83.73;93423.97;5053160;28;20213;-65
2022/04/03 04:18:20;;;;;;;2.83;1.77;;;;;;;7.59;84.29;93438.06;5052984;28;20587;-64
2022/04/03 04:20:46;;;;;;;3.00;2.00;;;;;;;7.36;84.24;93430.06;5052867;28;20296;-63
2022/04/03 04:23:12;;;;;;;4.83;2.17;;;;;;;7.26;86.23;93424.25;5053305;28;20177;-61
2022/04/03 04:25:37;;;;;;;3.50;2.03;;;;;;;7.23;87.23;93428.78;5052752;28;20209;-63
2022/04/03 04:28:03;;;;;;;3.20;1.90;;;;;;;7.13;88.25;93436.41;5053106;28;20235;-61
2022/04/03 04:30:29;;;;;;;3.77;2.10;;;;;;;7.20;87.61;93444.22;5053031;28;20205;-63
2022/04/03 04:32:54;;;;;;;7.90;2.00;;;;;;;7.23;89.23;93447.25;5052796;28;20179;-62
2022/04/03 04:35:20;;;;;;;4.33;2.10;;;;;;;7.48;86.07;93473.63;5052934;28;20205;-59
2022/04/03 04:37:45;;;;;;;2.07;1.73;;;;;;;7.39;88.44;93464.38;5051285;28;20641;-60
2022/04/03 04:40:12;;;;;;;3.67;2.00;;;;;;;7.41;87.74;93472.59;5052650;28;20228;-60
2022/04/03 04:42:39;;;;;;;4.27;1.83;;;;;;;7.43;86.87;93466.44;5052441;28;20263;-60
2022/04/03 04:45:09;;;;;;;3.73;1.50;;;;;;;7.07;87.59;93458.91;5052477;28;20204;-61
2022/04/03 04:47:38;;;;;;;4.20;1.73;;;;;;;6.79;90.56;93461.38;5052381;28;20267;-60
2022/04/03 04:50:08;;;;;;;2.90;1.50;;;;;;;6.74;94.59;93458.47;5052692;28;20631;-63
2022/04/03 04:52:35;;;;;;;3.37;1.90;;;;;;;6.69;94.26;93464.84;5052598;28;20268;-64
2022/04/03 04:55:01;;;;;;;4.90;2.30;;;;;;;6.84;93.67;93477.84;5050792;28;20189;-60
2022/04/03 04:57:26;;;;;;;2.70;1.67;;;;;;;7.11;91.31;93481.22;5052009;28;20204;-62
2022/04/03 04:59:51;;;;;;;5.80;1.97;;;;;;;7.37;89.27;93491.53;5052363;28;20209;-60
2022/04/03 05:02:17;;;;;;;4.53;1.60;;;;;;;7.52;88.22;93495.16;5050794;28;20205;-63
2022/04/03 05:04:42;;;;;;;4.43;2.37;;;;;;;7.63;89.14;93482.34;5052293;28;20264;-62
2022/04/03 05:07:11;;;;;;;4.00;2.00;;;;;;;7.50;89.28;93492.78;5052120;28;20205;-60
2022/04/03 05:09:37;;;;;;;5.90;1.87;;;;;;;7.47;87.26;93482.94;5052098;28;20177;-59
2022/04/03 05:12:03;;;;;;;3.03;1.67;;;;;;;7.90;86.14;93519.47;5051948;28;20642;-62
2022/04/03 05:14:29;;;;;;;6.93;1.90;;;;;;;7.95;86.69;93515.56;5051846;28;20208;-62
2022/04/03 05:16:54;;;;;;;4.93;1.83;;;;;;;7.99;85.22;93543.91;5051762;28;20267;-63
2022/04/03 05:19:24;;;;;;;3.07;1.47;;;;;;;8.22;83.83;93560.31;5051859;28;20189;-63
2022/04/03 05:21:50;;;;;;;6.07;2.03;;;;;;;8.19;84.85;93556.31;5050757;28;20228;-62
2022/04/03 05:24:16;;;;;;;2.40;1.97;;;;;;;8.39;82.43;93580.59;5050501;28;20182;-59
2022/04/03 05:26:41;;;;;;;3.93;2.20;;;;;;;8.43;81.79;93593.78;5052235;28;20220;-60
2022/04/03 05:29:07;;;;;;;6.10;2.00;;;;;;;8.39;81.95;93583.13;5051881;28;20173;-59
2022/04/03 05:31:40;;;;;;;4.90;2.20;;;;;;;8.30;81.29;93589.03;5050739;28;20273;-62
2022/04/03 05:34:05;;;;;;;9.60;2.40;;;;;;;8.20;80.37;93595.88;5051770;28;20704;-63
2022/04/03 05:36:31;;;;;;;6.97;2.67;;;;;;;8.15;81.27;93580.31;5052154;28;20246;-61
2022/04/03 05:38:56;;;;;;;3.90;2.07;;;;;;;8.36;81.51;93585.94;5051919;28;20200;-62
2022/04/03 05:41:22;;;;;;;2.43;2.00;;;;;;;8.45;80.53;93599.50;5052092;28;20201;-63
2022/04/03 05:43:47;;;;;;;3.67;2.37;;;;;;;8.21;83.79;93551.91;5051768;28;20188;-63
2022/04/03 05:46:13;;;;;;;4.57;2.40;;;;;;;8.20;82.00;93578.16;5052064;28;20209;-61
2022/04/03 05:48:39;;;;;;;2.60;2.10;;;;;;;8.08;84.05;93543.84;5050254;28;20216;-62
2022/04/03 05:51:04;;;;;;;5.00;2.00;;;;;;;8.40;82.15;93584.72;5051773;28;20228;-63
2022/04/03 05:53:30;;;;;;;6.70;2.40;;;;;;;8.48;82.61;93586.56;5051726;28;20189;-61
2022/04/03 05:55:55;;;;;;;4.03;2.23;;;;;;;8.39;83.00;93572.22;5051432;28;20288;-62
2022/04/03 05:58:21;;;;;;;3.43;2.27;;;;;;;8.46;82.91;93583.38;5051510;28;20666;-61
2022/04/03 06:00:46;;;;;;;9.53;2.67;;;;;;;8.37;81.47;93610.34;5051220;28;20272;-62
2022/04/03 06:03:13;;;;;;;5.47;2.40;;;;;;;8.32;83.26;93573.72;5051386;28;20188;-60
2022/04/03 06:05:39;;;;;;;5.07;2.70;;;;;;;7.97;85.28;93559.25;5050330;28;20601;-59
2022/04/03 06:08:05;;;;;;;2.00;1.47;;;;;;;8.16;76.23;93677.31;5052513;28;20178;-63
2022/04/03 06:10:31;;;;;;;2.30;0.63;;;;;;;8.01;63.05;93851.56;5055603;28;20584;-63
2022/04/03 06:12:59;;;;;;;0.90;0.50;;;;;;;8.05;62.05;93825.06;5055554;28;20173;-62
2022/04/03 06:15:27;;;;;;;1.50;0.43;;;;;;;8.12;61.49;93832.91;5053898;28;20214;-61
2022/04/03 06:17:53;;;;;;;2.23;0.73;;;;;;;8.11;59.64;93859.16;5055452;28;20232;-62
2022/04/03 06:20:19;;;;;;;0.47;0.47;;;;;;;8.10;60.30;93832.25;5055338;28;20240;-61
2022/04/03 06:22:45;;;;;;;2.13;0.50;;;;;;;8.10;62.04;93784.94;5055233;28;20235;-62
2022/04/03 06:25:12;;;;;;;1.13;0.40;;;;;;;8.08;60.36;93842.50;5055167;28;20189;-62
2022/04/03 06:27:38;;;;;;;2.33;0.60;;;;;;;7.90;61.19;93823.84;5055148;28;20180;-61
2022/04/03 06:30:04;;;;;;;0.83;0.50;;;;;;;7.79;60.93;93811.38;5055043;28;20184;-63
2022/04/03 06:32:29;;;;;;;2.10;0.37;;;;;;;7.86;60.51;93814.94;5055239;28;20195;-61
2022/04/03 06:34:56;;;;;;;1.17;0.50;;;;;;;7.97;62.11;93784.44;5055265;28;20193;-62
2022/04/03 06:37:21;;;;;;;1.97;1.10;;;;;;;8.21;61.45;93812.63;5055328;28;20690;-64
2022/04/03 06:39:47;;;;;;;0.77;0.40;;;;;;;8.23;61.45;93797.31;5055034;28;20319;-64
2022/04/03 06:42:12;;;;;;;1.13;0.50;;;;;;;8.51;61.25;93813.38;5055065;28;20194;-61
2022/04/03 06:44:39;;;;;;;0.70;0.40;;;;;;;8.12;60.47;93822.78;5054834;28;20679;-63
2022/04/03 06:47:05;;;;;;;2.83;0.87;;;;;;;8.13;62.09;93791.47;5055176;28;20201;-63
2022/04/03 06:49:32;;;;;;;0.50;0.40;;;;;;;8.23;61.86;93792.25;5053476;28;20176;-63
2022/04/03 06:51:57;;;;;;;0.83;0.40;;;;;;;8.37;61.35;93820.50;5053461;28;20198;-60
2022/04/03 06:54:23;;;;;;;0.50;0.50;;;;;;;8.54;61.46;93820.72;5054873;28;20180;-62
2022/04/03 06:56:48;;;;;;;1.40;0.73;;;;;;;8.21;62.02;93809.31;5036999;28;20363;-63
2022/04/03 06:59:14;;;;;;;1.60;0.60;;;;;;;7.89;62.58;93801.22;5054747;28;20185;-63
2022/04/03 07:01:39;;;;;;;0.50;0.50;;;;;;;7.80;63.48;93769.94;5054960;28;20220;-64
2022/04/03 07:04:05;;;;;;;0.80;0.43;;;;;;;7.91;64.24;93779.94;5054638;28;20209;-63
2022/04/03 07:06:30;;;;;;;1.73;0.70;;;;;;;7.96;64.55;93757.53;5054699;28;20215;-59
2022/04/03 07:08:56;;;;;;;5.10;1.90;;;;;;;8.01;63.76;93803.47;5053328;28;20238;-64
2022/04/03 07:11:21;;;;;;;0.60;0.60;;;;;;;7.82;63.48;93822.97;5054842;28;20567;-61
2022/04/03 07:13:48;;;;;;;1.43;1.00;;;;;;;7.92;63.21;93814.41;5054857;28;20673;-63
2022/04/03 07:16:14;;;;;;;1.33;0.80;;;;;;;7.91;64.29;93792.59;5053322;28;20249;-68
2022/04/03 07:18:40;;;;;;;0.40;0.40;;;;;;;7.99;64.13;93794.44;5052784;28;20216;-61
2022/04/03 07:21:05;;;;;;;2.83;0.70;;;;;;;7.98;64.10;93798.69;5053018;28;20627;-63
2022/04/03 07:23:30;;;;;;;0.87;0.50;;;;;;;7.79;64.52;93796.19;5054439;28;20262;-61
2022/04/03 07:25:56;;;;;;;0.63;0.47;;;;;;;7.65;65.07;93779.66;5053454;28;20300;-61
2022/04/03 07:28:22;;;;;;;0.87;0.40;;;;;;;7.52;65.82;93779.16;5054249;28;20188;-63
2022/04/03 07:30:48;;;;;;;0.70;0.63;;;;;;;7.50;66.02;93775.16;5053205;28;20697;-64
2022/04/03 07:33:14;;;;;;;1.60;0.50;;;;;;;7.59;67.01;93765.03;5054210;28;20677;-63
2022/04/03 07:35:40;;;;;;;0.70;0.47;;;;;;;7.63;67.88;93760.53;5054228;28;20217;-61
2022/04/03 07:38:06;;;;;;;1.47;0.80;;;;;;;7.77;66.43;93777.00;5054097;28;20683;-62
2022/04/03 07:40:32;;;;;;;1.07;0.43;;;;;;;7.91;65.86;93800.16;5054267;28;20239;-60
2022/04/03 07:42:58;;;;;;;0.57;0.57;;;;;;;8.05;64.63;93826.78;5053856;28;20177;-61
2022/04/03 07:45:23;;;;;;;1.60;0.50;;;;;;;7.92;64.71;93811.88;5054152;28;20209;-63
2022/04/03 07:47:50;;;;;;;0.50;0.40;;;;;;;8.03;63.42;93856.50;5054271;28;20193;-63
2022/04/03 07:50:21;;;;;;;1.10;0.47;;;;;;;8.08;64.50;93837.44;5054179;28;20188;-61
2022/04/03 07:52:48;;;;;;;0.37;0.37;;;;;;;8.27;62.45;93867.81;5052393;28;20178;-61
2022/04/03 07:55:14;;;;;;;1.90;0.50;;;;;;;8.39;62.30;93874.34;5053833;28;20181;-63
2022/04/03 07:57:40;;;;;;;1.10;0.30;;;;;;;8.30;62.64;93874.34;5053575;28;20216;-62
2022/04/03 08:00:10;;;;;;;2.63;0.50;;;;;;;8.29;62.85;93860.09;5053598;28;20200;-64
2022/04/03 08:02:39;;;;;;;0.70;0.60;;;;;;;8.21;61.98;93873.41;5052550;28;20166;-62
2022/04/03 08:05:06;;;;;;;0.50;0.40;;;;;;;8.09;63.08;93863.53;5053513;28;20190;-60
2022/04/03 08:07:36;;;;;;;0.40;0.40;;;;;;;8.15;63.44;93860.47;5053276;28;20182;-65
2022/04/03 08:10:08;;;;;;;1.23;0.40;;;;;;;8.20;63.71;93850.75;5053203;28;20184;-62
2022/04/03 08:12:37;;;;;;;0.57;0.40;;;;;;;8.21;63.23;93847.28;5053297;28;20650;-65
2022/04/03 08:15:04;;;;;;;0.60;0.40;;;;;;;8.50;62.47;93857.38;5053298;28;20573;-63
2022/04/03 08:17:31;;;;;;;2.30;0.40;;;;;;;8.56;63.20;93861.91;5053527;28;20209;-62
2022/04/03 08:19:56;;;;;;;0.70;0.30;;;;;;;8.48;60.40;93952.97;5053163;28;20276;-63
2022/04/03 08:22:22;;;;;;;0.37;0.37;;;;;;;8.26;59.77;93957.34;5053183;28;20200;-63
2022/04/03 08:24:49;;;;;;;0.30;0.30;;;;;;;8.08;61.21;93903.22;5051986;28;20189;-63
2022/04/03 08:27:15;;;;;;;0.63;0.40;;;;;;;8.25;60.91;93904.31;5053305;28;20200;-63
2022/04/03 08:29:41;;;;;;;0.93;0.50;;;;;;;8.32;60.37;93901.13;5053002;28;20698;-65
2022/04/03 08:32:07;;;;;;;1.10;0.73;;;;;;;8.12;60.76;93903.78;5052171;28;20201;-65
2022/04/03 08:34:33;;;;;;;0.50;0.30;;;;;;;8.55;60.08;93928.69;5053094;28;20188;-63
2022/04/03 08:36:58;;;;;;;0.47;0.30;;;;;;;8.86;57.88;93961.31;5051419;28;20219;-62
2022/04/03 08:39:31;;;;;;;2.53;0.40;;;;;;;9.01;58.08;93965.00;5052634;28;20225;-60
2022/04/03 08:41:56;;;;;;;1.60;0.30;;;;;;;8.92;58.54;93954.88;5051418;28;20699;-62
2022/04/03 08:44:22;;;;;;;2.13;0.50;;;;;;;8.95;58.85;93949.53;5052835;28;20180;-62
2022/04/03 08:46:49;;;;;;;0.37;0.30;;;;;;;8.76;56.94;93977.47;5052643;28;20197;-64
2022/04/03 08:49:19;;;;;;;0.20;0.20;;;;;;;8.77;56.20;94001.84;5052838;28;20195;-63
2022/04/03 08:51:46;;;;;;;1.37;0.30;;;;;;;8.59;57.46;93993.31;5053241;28;20205;-66
2022/04/03 08:54:13;;;;;;;1.43;0.73;;;;;;;8.52;58.10;93937.38;5052826;28;20185;-62
2022/04/03 08:56:42;;;;;;;1.43;0.37;;;;;;;8.40;59.66;93923.25;5051339;28;20212;-63
2022/04/03 08:59:08;;;;;;;0.40;0.40;;;;;;;8.62;58.89;93932.28;5052392;28;20559;-61
2022/04/03 09:01:34;;;;;;;1.23;0.70;;;;;;;8.98;58.69;93945.00;5052728;28;20201;-62
2022/04/03 09:03:59;;;;;;;1.40;0.30;;;;;;;8.95;56.71;93990.88;5050905;28;20192;-61
2022/04/03 09:06:25;;;;;;;0.40;0.40;;;;;;;9.36;57.40;93984.66;5052596;28;20209;-63
2022/04/03 09:08:50;;;;;;;0.33;0.30;;;;;;;9.13;55.19;94032.34;5052302;28;20212;-60
2022/04/03 09:11:16;;;;;;;0.80;0.30;;;;;;;9.31;55.84;94007.09;5050962;28;20300;-63
2022/04/03 09:13:43;;;;;;;1.30;0.70;;;;;;;9.14;56.45;93979.91;5050948;28;20243;-62
2022/04/03 09:16:10;;;;;;;0.50;0.50;;;;;;;9.28;56.81;93982.81;5052393;28;20611;-61
2022/04/03 09:18:43;;;;;;;0.50;0.50;;;;;;;9.41;54.32;94032.44;5052347;28;20200;-62
2022/04/03 09:21:35;;;;;;;2.83;0.70;;;;;;;9.27;54.33;94028.59;5052584;28;20266;-65
2022/04/03 09:24:07;;;;;;;0.20;0.20;;;;;;;9.97;52.68;94071.22;5031669;28;20210;-66
2022/04/03 09:26:34;;;;;;;1.93;0.97;;;;;;;10.63;52.20;94074.34;5050456;28;20209;-64
2022/04/03 09:29:17;;;;;;;0.50;0.43;;;;;;;10.44;50.31;94110.06;5052121;28;20659;-64
2022/04/03 09:31:45;;;;;;;0.83;0.30;;;;;;;10.36;49.96;94099.78;5051804;28;20683;-64
2022/04/03 09:34:20;;;;;;;1.80;0.63;;;;;;;10.10;50.31;94077.59;5051833;28;20178;-63
2022/04/03 09:37:00;;;;;;;2.57;0.57;;;;;;;9.97;51.39;94076.28;5052410;28;20212;-64
2022/04/03 09:39:29;;;;;;;1.07;0.30;;;;;;;9.91;49.79;94118.28;5050557;28;20270;-63
2022/04/03 09:42:03;;;;;;;0.80;0.80;;;;;;;9.96;52.02;94060.25;5051503;28;20695;-65
2022/04/03 09:44:35;;;;;;;3.23;1.10;;;;;;;10.50;58.04;93922.25;5051856;28;20525;-64
2022/04/03 09:47:30;;;;;;;4.07;1.10;;;;;;;10.69;61.48;93872.97;5052108;28;20194;-61
2022/04/03 09:50:05;;;;;;;2.07;1.00;;;;;;;10.31;62.35;93876.69;5050727;28;20217;-63
2022/04/03 09:52:51;;;;;;;1.97;1.03;;;;;;;10.19;64.03;93847.38;5052008;28;20193;-62
2022/04/03 09:55:23;;;;;;;3.23;0.80;;;;;;;10.88;64.13;93843.06;5051639;28;20303;-61
2022/04/03 09:58:03;;;;;;;0.70;0.70;;;;;;;11.68;59.32;93935.94;5050096;28;20205;-61
2022/04/03 10:00:34;;;;;;;1.07;0.97;;;;;;;13.05;58.40;93962.41;5051750;28;20216;-62
2022/04/03 10:03:02;;;;;;;2.20;0.80;;;;;;;13.00;52.72;94088.84;5051601;28;20574;-62
2022/04/03 10:05:33;;;;;;;0.50;0.50;;;;;;;12.25;50.52;94126.25;5051549;28;20231;-62
2022/04/03 10:08:01;;;;;;;1.10;0.77;;;;;;;11.78;52.45;94076.66;5051292;28;20655;-61
2022/04/03 10:10:28;;;;;;;6.33;0.93;;;;;;;12.55;82.96;93640.53;5051548;28;20201;-63
2022/04/03 10:12:57;;;;;;;0.63;0.60;;;;;;;13.03;53.24;94081.66;5051552;28;20174;-62
2022/04/03 10:15:24;;;;;;;0.57;0.47;;;;;;;13.15;51.27;94105.94;5050117;28;20194;-62
2022/04/03 10:17:50;;;;;;;2.13;0.60;;;;;;;13.20;49.75;94131.00;5051299;28;20213;-62
2022/04/03 10:20:15;;;;;;;1.00;0.70;;;;;;;12.11;48.61;94106.44;5033545;28;20193;-62
2022/04/03 10:22:44;;;;;;;0.53;0.53;;;;;;;12.37;49.76;94080.91;5051836;28;20217;-61
2022/04/03 10:25:15;;;;;;;0.40;0.37;;;;;;;11.65;48.13;94127.97;5052290;28;20263;-62
2022/04/03 10:27:43;;;;;;;0.60;0.60;;;;;;;11.50;53.94;93971.66;5049510;28;20215;-64
2022/04/03 10:30:10;;;;;;;1.27;0.90;;;;;;;11.22;55.62;93956.72;5051444;28;20182;-63
2022/04/03 10:32:36;;;;;;;3.13;1.20;;;;;;;11.61;56.32;93940.84;5050109;28;20666;-65
2022/04/03 10:35:07;;;;;;;1.23;0.80;;;;;;;11.34;53.45;94008.94;5050742;28;20663;-63
2022/04/03 10:37:39;;;;;;;2.23;0.80;;;;;;;11.64;54.36;93981.25;5051436;28;20702;-61
2022/04/03 10:40:05;;;;;;;1.03;0.73;;;;;;;12.70;51.05;94062.19;5051375;28;20236;-61
2022/04/03 10:42:31;;;;;;;1.30;1.13;;;;;;;12.83;52.32;94019.16;5051312;28;20181;-67
2022/04/03 10:45:12;;;;;;;0.93;0.77;;;;;;;12.17;50.23;94074.47;5051426;28;20174;-63
2022/04/03 10:47:38;;;;;;;2.07;0.80;;;;;;;12.37;48.62;94114.03;5051509;28;20807;-63
2022/04/03 10:50:06;;;;;;;1.83;1.07;;;;;;;13.45;49.35;94079.78;5051447;28;20514;-63
2022/04/03 10:52:37;;;;;;;2.07;1.40;;;;;;;13.89;47.07;94143.28;5033421;28;20197;-62
2022/04/03 10:55:21;;;;;;;0.87;0.83;;;;;;;13.71;47.77;94127.31;5054013;28;20190;-64
2022/04/03 10:57:46;;;;;;;0.93;0.80;;;;;;;13.92;49.38;94068.81;5054762;28;20303;-63
2022/04/03 11:00:14;;;;;;;2.50;1.00;;;;;;;13.27;47.72;94106.44;5055262;28;20174;-64
2022/04/03 11:02:50;;;;;;;1.17;1.00;;;;;;;12.48;48.57;94093.38;5054690;28;20181;-61
2022/04/03 11:05:21;;;;;;;2.00;1.30;;;;;;;11.40;52.01;94013.41;5054897;28;20643;-63
2022/04/03 11:07:54;;;;;;;1.30;1.10;;;;;;;10.75;57.17;93895.22;5054721;28;20181;-63
2022/04/03 11:10:54;;;;;;;1.73;1.50;;;;;;;10.43;65.44;93793.38;5053468;28;20197;-63
2022/04/03 11:13:34;;;;;;;1.50;1.10;;;;;;;9.87;64.68;93836.94;5052937;28;20188;-62
2022/04/03 11:16:11;;;;;;;1.60;1.33;;;;;;;9.98;65.67;93831.59;5054660;28;20412;-60
2022/04/03 11:18:39;;;;;;;3.63;1.40;;;;;;;9.67;66.40;93850.69;5054792;28;20169;-64
2022/04/03 11:21:14;;;;;;;3.03;1.37;;;;;;;9.26;66.20;93842.69;5053249;28;20216;-63
2022/04/03 11:23:53;;;;;;;1.27;1.10;;;;;;;9.41;68.27;93797.34;5054518;28;20179;-62
2022/04/03 11:26:20;;;;;;;3.10;1.60;;;;;;;9.49;67.64;93835.47;5054312;28;20289;-65
2022/04/03 11:28:46;;;;;;;2.30;1.50;;;;;;;9.33;67.34;93833.53;5052907;28;20260;-60
2022/04/03 11:31:12;;;;;;;2.53;1.00;;;;;;;9.35;67.45;93832.63;5054596;28;20212;-64
2022/04/03 11:33:38;;;;;;;3.77;1.73;;;;;;;9.70;67.05;93845.31;5060056;23;20233;-62
2022/04/03 11:36:16;;;;;;;1.90;1.10;;;;;;;9.94;68.25;93826.03;5053896;28;20190;-61
2022/04/03 11:38:44;;;;;;;4.47;1.50;;;;;;;10.16;64.52;93907.81;5054476;28;20181;-64
2022/04/03 11:41:13;;;;;;;1.73;1.03;;;;;;;9.96;63.85;93909.66;5054137;28;20282;-66
2022/04/03 11:43:40;;;;;;;1.37;1.27;;;;;;;9.85;64.43;93905.63;5054482;28;20193;-63